sensor_id;sensor_type;location;lat;lon;timestamp;P1;durP1;ratioP1;P2;durP2;ratioP2
69890;SDS011;57170;43.964;21.262;2023-03-16T00:02:09;8.93;;;5.75;;
69890;SDS011;57170;43.964;21.262;2023-03-16T00:04:35;8.20;;;5.43;;
69890;SDS011;57170;43.964;21.262;2023-03-16T00:07:02;7.97;;;5.65;;
69890;SDS011;57170;43.964;21.262;2023-03-16T00:09:29;16.90;;;9.05;;
69890;SDS011;57170;43.964;21.262;2023-03-16T00:11:58;8.75;;;5.93;;
69890;SDS011;57170;43.964;21.262;2023-03-16T00:14:27;11.10;;;7.03;;
69890;SDS011;57170;43.964;21.262;2023-03-16T00:16:53;9.10;;;6.20;;
69890;SDS011;57170;43.964;21.262;2023-03-16T00:19:19;10.00;;;6.70;;
69890;SDS011;57170;43.964;21.262;2023-03-16T00:21:49;13.55;;;8.15;;
69890;SDS011;57170;43.964;21.262;2023-03-16T00:24:16;8.82;;;6.10;;
69890;SDS011;57170;43.964;21.262;2023-03-16T00:26:42;6.75;;;5.15;;
69890;SDS011;57170;43.964;21.262;2023-03-16T00:29:08;7.55;;;5.22;;
69890;SDS011;57170;43.964;21.262;2023-03-16T00:31:36;8.68;;;5.25;;
69890;SDS011;57170;43.964;21.262;2023-03-16T00:34:02;8.85;;;5.25;;
69890;SDS011;57170;43.964;21.262;2023-03-16T00:36:28;9.18;;;5.10;;
69890;SDS011;57170;43.964;21.262;2023-03-16T00:38:54;7.85;;;4.80;;
69890;SDS011;57170;43.964;21.262;2023-03-16T00:41:20;5.60;;;4.13;;
69890;SDS011;57170;43.964;21.262;2023-03-16T00:43:47;11.10;;;6.57;;
69890;SDS011;57170;43.964;21.262;2023-03-16T00:46:16;6.50;;;4.60;;
69890;SDS011;57170;43.964;21.262;2023-03-16T00:48:43;5.97;;;4.00;;
69890;SDS011;57170;43.964;21.262;2023-03-16T00:51:13;6.57;;;4.30;;
69890;SDS011;57170;43.964;21.262;2023-03-16T00:53:40;5.50;;;3.72;;
69890;SDS011;57170;43.964;21.262;2023-03-16T00:56:07;7.25;;;5.00;;
69890;SDS011;57170;43.964;21.262;2023-03-16T00:58:34;6.50;;;3.72;;
69890;SDS011;57170;43.964;21.262;2023-03-16T01:01:02;5.82;;;4.05;;
69890;SDS011;57170;43.964;21.262;2023-03-16T01:03:28;5.93;;;4.10;;
69890;SDS011;57170;43.964;21.262;2023-03-16T01:05:54;4.93;;;4.22;;
69890;SDS011;57170;43.964;21.262;2023-03-16T01:08:24;6.78;;;4.20;;
69890;SDS011;57170;43.964;21.262;2023-03-16T01:10:52;5.32;;;3.97;;
69890;SDS011;57170;43.964;21.262;2023-03-16T01:13:18;6.80;;;4.25;;
69890;SDS011;57170;43.964;21.262;2023-03-16T01:15:45;6.40;;;4.22;;
69890;SDS011;57170;43.964;21.262;2023-03-16T01:18:11;5.22;;;3.90;;
69890;SDS011;57170;43.964;21.262;2023-03-16T01:20:38;5.15;;;3.08;;
69890;SDS011;57170;43.964;21.262;2023-03-16T01:23:04;6.07;;;4.07;;
69890;SDS011;57170;43.964;21.262;2023-03-16T01:25:30;6.13;;;4.50;;
69890;SDS011;57170;43.964;21.262;2023-03-16T01:27:56;7.75;;;5.55;;
69890;SDS011;57170;43.964;21.262;2023-03-16T01:30:22;8.35;;;5.10;;
69890;SDS011;57170;43.964;21.262;2023-03-16T01:32:49;6.65;;;4.60;;
69890;SDS011;57170;43.964;21.262;2023-03-16T01:35:15;5.90;;;3.50;;
69890;SDS011;57170;43.964;21.262;2023-03-16T01:37:41;8.75;;;5.78;;
69890;SDS011;57170;43.964;21.262;2023-03-16T01:40:07;6.40;;;4.05;;
69890;SDS011;57170;43.964;21.262;2023-03-16T01:42:46;7.63;;;5.13;;
69890;SDS011;57170;43.964;21.262;2023-03-16T01:47:57;8.35;;;4.75;;
69890;SDS011;57170;43.964;21.262;2023-03-16T01:50:23;6.28;;;4.25;;
69890;SDS011;57170;43.964;21.262;2023-03-16T01:52:49;5.97;;;3.90;;
69890;SDS011;57170;43.964;21.262;2023-03-16T01:55:16;4.35;;;3.28;;
69890;SDS011;57170;43.964;21.262;2023-03-16T01:57:44;7.25;;;4.32;;
69890;SDS011;57170;43.964;21.262;2023-03-16T02:00:12;8.25;;;4.03;;
69890;SDS011;57170;43.964;21.262;2023-03-16T02:02:49;5.82;;;4.60;;
69890;SDS011;57170;43.964;21.262;2023-03-16T02:05:20;5.20;;;4.10;;
69890;SDS011;57170;43.964;21.262;2023-03-16T02:07:47;5.22;;;3.88;;
69890;SDS011;57170;43.964;21.262;2023-03-16T02:10:15;6.70;;;5.30;;
69890;SDS011;57170;43.964;21.262;2023-03-16T02:12:41;6.68;;;4.05;;
69890;SDS011;57170;43.964;21.262;2023-03-16T02:15:08;5.50;;;4.30;;
69890;SDS011;57170;43.964;21.262;2023-03-16T02:17:34;5.00;;;4.00;;
69890;SDS011;57170;43.964;21.262;2023-03-16T02:22:49;5.63;;;4.28;;
69890;SDS011;57170;43.964;21.262;2023-03-16T02:25:19;8.13;;;5.28;;
69890;SDS011;57170;43.964;21.262;2023-03-16T02:30:14;7.82;;;5.80;;
69890;SDS011;57170;43.964;21.262;2023-03-16T02:32:40;8.45;;;5.95;;
69890;SDS011;57170;43.964;21.262;2023-03-16T02:35:08;7.07;;;5.22;;
69890;SDS011;57170;43.964;21.262;2023-03-16T02:37:34;5.82;;;4.95;;
69890;SDS011;57170;43.964;21.262;2023-03-16T02:40:01;7.22;;;5.10;;
69890;SDS011;57170;43.964;21.262;2023-03-16T02:42:33;7.13;;;5.68;;
69890;SDS011;57170;43.964;21.262;2023-03-16T02:45:00;7.30;;;5.93;;
69890;SDS011;57170;43.964;21.262;2023-03-16T02:47:28;8.35;;;6.05;;
69890;SDS011;57170;43.964;21.262;2023-03-16T02:49:56;8.52;;;6.75;;
69890;SDS011;57170;43.964;21.262;2023-03-16T02:52:22;8.52;;;6.43;;
69890;SDS011;57170;43.964;21.262;2023-03-16T02:54:48;7.05;;;6.05;;
69890;SDS011;57170;43.964;21.262;2023-03-16T02:57:14;10.85;;;6.80;;
69890;SDS011;57170;43.964;21.262;2023-03-16T02:59:40;7.78;;;6.15;;
69890;SDS011;57170;43.964;21.262;2023-03-16T03:02:07;10.45;;;7.65;;
69890;SDS011;57170;43.964;21.262;2023-03-16T03:04:33;8.82;;;6.63;;
69890;SDS011;57170;43.964;21.262;2023-03-16T03:06:59;11.60;;;6.70;;
69890;SDS011;57170;43.964;21.262;2023-03-16T03:09:29;9.13;;;6.28;;
69890;SDS011;57170;43.964;21.262;2023-03-16T03:11:56;10.50;;;7.93;;
69890;SDS011;57170;43.964;21.262;2023-03-16T03:14:22;11.68;;;7.65;;
69890;SDS011;57170;43.964;21.262;2023-03-16T03:16:49;11.70;;;9.15;;
69890;SDS011;57170;43.964;21.262;2023-03-16T03:19:16;9.20;;;6.20;;
69890;SDS011;57170;43.964;21.262;2023-03-16T03:21:42;8.23;;;6.40;;
69890;SDS011;57170;43.964;21.262;2023-03-16T03:24:09;10.18;;;7.40;;
69890;SDS011;57170;43.964;21.262;2023-03-16T03:26:35;13.57;;;8.52;;
69890;SDS011;57170;43.964;21.262;2023-03-16T03:29:04;13.30;;;7.35;;
69890;SDS011;57170;43.964;21.262;2023-03-16T03:31:30;9.73;;;7.30;;
69890;SDS011;57170;43.964;21.262;2023-03-16T03:33:56;11.82;;;7.28;;
69890;SDS011;57170;43.964;21.262;2023-03-16T03:36:22;8.90;;;6.57;;
69890;SDS011;57170;43.964;21.262;2023-03-16T03:38:48;8.13;;;5.35;;
69890;SDS011;57170;43.964;21.262;2023-03-16T03:41:14;9.10;;;6.88;;
69890;SDS011;57170;43.964;21.262;2023-03-16T03:43:40;11.00;;;6.18;;
69890;SDS011;57170;43.964;21.262;2023-03-16T03:46:06;8.07;;;6.10;;
69890;SDS011;57170;43.964;21.262;2023-03-16T03:48:32;10.40;;;6.32;;
69890;SDS011;57170;43.964;21.262;2023-03-16T03:50:59;10.40;;;5.63;;
69890;SDS011;57170;43.964;21.262;2023-03-16T03:53:26;11.85;;;6.50;;
69890;SDS011;57170;43.964;21.262;2023-03-16T03:55:52;8.85;;;6.72;;
69890;SDS011;57170;43.964;21.262;2023-03-16T03:58:18;11.23;;;8.07;;
69890;SDS011;57170;43.964;21.262;2023-03-16T04:00:44;7.68;;;5.13;;
69890;SDS011;57170;43.964;21.262;2023-03-16T04:03:10;10.15;;;5.72;;
69890;SDS011;57170;43.964;21.262;2023-03-16T04:05:36;8.27;;;5.25;;
69890;SDS011;57170;43.964;21.262;2023-03-16T04:08:02;10.40;;;6.85;;
69890;SDS011;57170;43.964;21.262;2023-03-16T04:10:29;9.05;;;5.35;;
69890;SDS011;57170;43.964;21.262;2023-03-16T04:12:55;11.88;;;6.57;;
69890;SDS011;57170;43.964;21.262;2023-03-16T04:15:21;8.95;;;6.10;;
69890;SDS011;57170;43.964;21.262;2023-03-16T04:17:48;8.82;;;6.93;;
69890;SDS011;57170;43.964;21.262;2023-03-16T04:20:14;8.18;;;6.43;;
69890;SDS011;57170;43.964;21.262;2023-03-16T04:22:43;8.25;;;6.10;;
69890;SDS011;57170;43.964;21.262;2023-03-16T04:25:10;6.70;;;5.55;;
69890;SDS011;57170;43.964;21.262;2023-03-16T04:27:37;9.23;;;5.82;;
69890;SDS011;57170;43.964;21.262;2023-03-16T04:30:03;7.82;;;5.38;;
69890;SDS011;57170;43.964;21.262;2023-03-16T04:32:29;6.57;;;5.18;;
69890;SDS011;57170;43.964;21.262;2023-03-16T04:34:56;11.48;;;7.70;;
69890;SDS011;57170;43.964;21.262;2023-03-16T04:37:22;10.65;;;6.72;;
69890;SDS011;57170;43.964;21.262;2023-03-16T04:39:48;6.43;;;4.90;;
69890;SDS011;57170;43.964;21.262;2023-03-16T04:42:14;7.80;;;4.90;;
69890;SDS011;57170;43.964;21.262;2023-03-16T04:44:40;8.25;;;5.20;;
69890;SDS011;57170;43.964;21.262;2023-03-16T04:47:10;7.20;;;5.82;;
69890;SDS011;57170;43.964;21.262;2023-03-16T04:49:36;10.38;;;6.25;;
69890;SDS011;57170;43.964;21.262;2023-03-16T04:52:02;10.63;;;6.10;;
69890;SDS011;57170;43.964;21.262;2023-03-16T04:54:29;8.02;;;5.75;;
69890;SDS011;57170;43.964;21.262;2023-03-16T04:56:55;7.38;;;5.43;;
69890;SDS011;57170;43.964;21.262;2023-03-16T04:59:21;11.60;;;6.85;;
69890;SDS011;57170;43.964;21.262;2023-03-16T05:01:47;12.35;;;6.88;;
69890;SDS011;57170;43.964;21.262;2023-03-16T05:04:14;8.90;;;6.93;;
69890;SDS011;57170;43.964;21.262;2023-03-16T05:06:40;9.18;;;7.05;;
69890;SDS011;57170;43.964;21.262;2023-03-16T05:09:06;7.95;;;5.80;;
69890;SDS011;57170;43.964;21.262;2023-03-16T05:11:33;11.10;;;7.45;;
69890;SDS011;57170;43.964;21.262;2023-03-16T05:13:59;9.93;;;7.43;;
69890;SDS011;57170;43.964;21.262;2023-03-16T05:16:26;11.52;;;7.88;;
69890;SDS011;57170;43.964;21.262;2023-03-16T05:18:52;9.85;;;6.95;;
69890;SDS011;57170;43.964;21.262;2023-03-16T05:21:18;10.45;;;6.85;;
69890;SDS011;57170;43.964;21.262;2023-03-16T05:23:44;11.65;;;6.85;;
69890;SDS011;57170;43.964;21.262;2023-03-16T05:26:10;13.18;;;7.93;;
69890;SDS011;57170;43.964;21.262;2023-03-16T05:28:37;11.80;;;6.35;;
69890;SDS011;57170;43.964;21.262;2023-03-16T05:31:04;14.80;;;7.32;;
69890;SDS011;57170;43.964;21.262;2023-03-16T05:33:30;15.00;;;8.48;;
69890;SDS011;57170;43.964;21.262;2023-03-16T05:35:56;11.07;;;6.72;;
69890;SDS011;57170;43.964;21.262;2023-03-16T05:38:23;10.85;;;7.53;;
69890;SDS011;57170;43.964;21.262;2023-03-16T05:40:49;8.90;;;6.65;;
69890;SDS011;57170;43.964;21.262;2023-03-16T05:43:17;9.80;;;7.00;;
69890;SDS011;57170;43.964;21.262;2023-03-16T05:45:44;15.45;;;8.90;;
69890;SDS011;57170;43.964;21.262;2023-03-16T05:48:10;16.00;;;9.90;;
69890;SDS011;57170;43.964;21.262;2023-03-16T05:50:37;8.65;;;7.32;;
69890;SDS011;57170;43.964;21.262;2023-03-16T05:53:03;13.82;;;8.02;;
69890;SDS011;57170;43.964;21.262;2023-03-16T05:55:29;11.80;;;8.10;;
69890;SDS011;57170;43.964;21.262;2023-03-16T05:57:55;21.42;;;9.15;;
69890;SDS011;57170;43.964;21.262;2023-03-16T06:00:21;10.52;;;7.85;;
69890;SDS011;57170;43.964;21.262;2023-03-16T06:02:48;12.25;;;9.20;;
69890;SDS011;57170;43.964;21.262;2023-03-16T06:05:19;14.45;;;9.65;;
69890;SDS011;57170;43.964;21.262;2023-03-16T06:07:46;14.00;;;8.88;;
69890;SDS011;57170;43.964;21.262;2023-03-16T06:10:12;15.13;;;9.38;;
69890;SDS011;57170;43.964;21.262;2023-03-16T06:12:38;11.65;;;7.93;;
69890;SDS011;57170;43.964;21.262;2023-03-16T06:15:05;9.98;;;7.10;;
69890;SDS011;57170;43.964;21.262;2023-03-16T06:17:32;14.80;;;9.07;;
69890;SDS011;57170;43.964;21.262;2023-03-16T06:19:58;15.73;;;9.13;;
69890;SDS011;57170;43.964;21.262;2023-03-16T06:22:25;13.30;;;9.30;;
69890;SDS011;57170;43.964;21.262;2023-03-16T06:24:51;15.35;;;8.93;;
69890;SDS011;57170;43.964;21.262;2023-03-16T06:27:18;14.45;;;9.40;;
69890;SDS011;57170;43.964;21.262;2023-03-16T06:29:45;15.32;;;9.60;;
69890;SDS011;57170;43.964;21.262;2023-03-16T06:32:11;18.08;;;10.95;;
69890;SDS011;57170;43.964;21.262;2023-03-16T06:34:37;12.93;;;9.85;;
69890;SDS011;57170;43.964;21.262;2023-03-16T06:37:05;14.70;;;9.98;;
69890;SDS011;57170;43.964;21.262;2023-03-16T06:39:31;14.43;;;9.18;;
69890;SDS011;57170;43.964;21.262;2023-03-16T06:41:57;13.10;;;8.82;;
69890;SDS011;57170;43.964;21.262;2023-03-16T06:44:24;14.63;;;10.00;;
69890;SDS011;57170;43.964;21.262;2023-03-16T06:46:50;15.00;;;9.70;;
69890;SDS011;57170;43.964;21.262;2023-03-16T06:49:16;13.93;;;9.15;;
69890;SDS011;57170;43.964;21.262;2023-03-16T06:51:42;17.98;;;10.27;;
69890;SDS011;57170;43.964;21.262;2023-03-16T06:54:08;17.35;;;12.43;;
69890;SDS011;57170;43.964;21.262;2023-03-16T06:56:34;19.30;;;13.30;;
69890;SDS011;57170;43.964;21.262;2023-03-16T06:59:00;18.13;;;11.95;;
69890;SDS011;57170;43.964;21.262;2023-03-16T07:01:26;16.25;;;11.98;;
69890;SDS011;57170;43.964;21.262;2023-03-16T07:03:52;18.35;;;12.25;;
69890;SDS011;57170;43.964;21.262;2023-03-16T07:06:18;18.80;;;11.38;;
69890;SDS011;57170;43.964;21.262;2023-03-16T07:08:44;17.45;;;10.95;;
69890;SDS011;57170;43.964;21.262;2023-03-16T07:11:10;16.27;;;9.73;;
69890;SDS011;57170;43.964;21.262;2023-03-16T07:13:37;19.35;;;10.98;;
69890;SDS011;57170;43.964;21.262;2023-03-16T07:16:03;13.38;;;9.02;;
69890;SDS011;57170;43.964;21.262;2023-03-16T07:18:29;15.45;;;10.27;;
69890;SDS011;57170;43.964;21.262;2023-03-16T07:20:55;16.98;;;10.23;;
69890;SDS011;57170;43.964;21.262;2023-03-16T07:23:22;15.02;;;10.27;;
69890;SDS011;57170;43.964;21.262;2023-03-16T07:25:49;18.48;;;12.15;;
69890;SDS011;57170;43.964;21.262;2023-03-16T07:28:16;27.33;;;12.68;;
69890;SDS011;57170;43.964;21.262;2023-03-16T07:30:43;17.33;;;12.90;;
69890;SDS011;57170;43.964;21.262;2023-03-16T07:33:10;18.27;;;13.00;;
69890;SDS011;57170;43.964;21.262;2023-03-16T07:35:36;17.58;;;10.93;;
69890;SDS011;57170;43.964;21.262;2023-03-16T07:38:02;17.02;;;10.32;;
69890;SDS011;57170;43.964;21.262;2023-03-16T07:40:28;10.60;;;7.40;;
69890;SDS011;57170;43.964;21.262;2023-03-16T07:42:55;14.73;;;9.48;;
69890;SDS011;57170;43.964;21.262;2023-03-16T07:45:21;14.02;;;9.70;;
69890;SDS011;57170;43.964;21.262;2023-03-16T07:47:47;11.02;;;8.68;;
69890;SDS011;57170;43.964;21.262;2023-03-16T07:50:13;12.38;;;7.93;;
69890;SDS011;57170;43.964;21.262;2023-03-16T07:52:41;20.13;;;14.45;;
69890;SDS011;57170;43.964;21.262;2023-03-16T07:55:08;23.55;;;16.92;;
69890;SDS011;57170;43.964;21.262;2023-03-16T07:57:34;17.13;;;12.18;;
69890;SDS011;57170;43.964;21.262;2023-03-16T08:00:00;19.55;;;14.85;;
69890;SDS011;57170;43.964;21.262;2023-03-16T08:02:29;53.03;;;34.05;;
69890;SDS011;57170;43.964;21.262;2023-03-16T08:04:55;35.30;;;20.70;;
69890;SDS011;57170;43.964;21.262;2023-03-16T08:07:21;21.20;;;13.10;;
69890;SDS011;57170;43.964;21.262;2023-03-16T08:09:47;22.83;;;13.52;;
69890;SDS011;57170;43.964;21.262;2023-03-16T08:12:13;22.23;;;17.52;;
69890;SDS011;57170;43.964;21.262;2023-03-16T08:14:39;21.23;;;14.25;;
69890;SDS011;57170;43.964;21.262;2023-03-16T08:17:05;19.30;;;13.15;;
69890;SDS011;57170;43.964;21.262;2023-03-16T08:19:32;16.50;;;11.05;;
69890;SDS011;57170;43.964;21.262;2023-03-16T08:21:58;20.05;;;13.40;;
69890;SDS011;57170;43.964;21.262;2023-03-16T08:24:27;18.27;;;11.00;;
69890;SDS011;57170;43.964;21.262;2023-03-16T08:26:55;21.02;;;14.50;;
69890;SDS011;57170;43.964;21.262;2023-03-16T08:29:21;17.08;;;9.80;;
69890;SDS011;57170;43.964;21.262;2023-03-16T08:31:48;17.25;;;12.18;;
69890;SDS011;57170;43.964;21.262;2023-03-16T08:34:14;17.17;;;11.70;;
69890;SDS011;57170;43.964;21.262;2023-03-16T08:36:42;23.00;;;15.68;;
69890;SDS011;57170;43.964;21.262;2023-03-16T08:39:08;22.67;;;17.73;;
69890;SDS011;57170;43.964;21.262;2023-03-16T08:41:34;22.25;;;14.30;;
69890;SDS011;57170;43.964;21.262;2023-03-16T08:44:00;21.55;;;16.13;;
69890;SDS011;57170;43.964;21.262;2023-03-16T08:46:27;29.45;;;19.48;;
69890;SDS011;57170;43.964;21.262;2023-03-16T08:48:53;24.33;;;15.50;;
69890;SDS011;57170;43.964;21.262;2023-03-16T08:51:22;24.88;;;13.55;;
69890;SDS011;57170;43.964;21.262;2023-03-16T08:53:48;23.52;;;14.48;;
69890;SDS011;57170;43.964;21.262;2023-03-16T08:56:14;22.30;;;16.05;;
69890;SDS011;57170;43.964;21.262;2023-03-16T08:58:41;28.58;;;19.20;;
69890;SDS011;57170;43.964;21.262;2023-03-16T09:01:11;21.58;;;15.45;;
69890;SDS011;57170;43.964;21.262;2023-03-16T09:03:37;23.90;;;15.27;;
69890;SDS011;57170;43.964;21.262;2023-03-16T09:06:08;22.40;;;15.52;;
69890;SDS011;57170;43.964;21.262;2023-03-16T09:08:34;24.58;;;16.55;;
69890;SDS011;57170;43.964;21.262;2023-03-16T09:11:04;19.80;;;14.50;;
69890;SDS011;57170;43.964;21.262;2023-03-16T09:13:32;26.13;;;19.00;;
69890;SDS011;57170;43.964;21.262;2023-03-16T09:15:58;30.48;;;17.95;;
69890;SDS011;57170;43.964;21.262;2023-03-16T09:18:24;23.90;;;17.02;;
69890;SDS011;57170;43.964;21.262;2023-03-16T09:21:02;24.58;;;17.13;;
69890;SDS011;57170;43.964;21.262;2023-03-16T09:23:29;25.23;;;15.93;;
69890;SDS011;57170;43.964;21.262;2023-03-16T09:25:59;23.40;;;16.98;;
69890;SDS011;57170;43.964;21.262;2023-03-16T09:28:26;20.27;;;13.88;;
69890;SDS011;57170;43.964;21.262;2023-03-16T09:30:53;26.15;;;17.90;;
69890;SDS011;57170;43.964;21.262;2023-03-16T09:33:20;22.08;;;15.75;;
69890;SDS011;57170;43.964;21.262;2023-03-16T09:35:46;29.60;;;20.33;;
69890;SDS011;57170;43.964;21.262;2023-03-16T09:38:13;23.85;;;17.10;;
69890;SDS011;57170;43.964;21.262;2023-03-16T09:40:39;22.98;;;16.00;;
69890;SDS011;57170;43.964;21.262;2023-03-16T09:45:35;22.42;;;16.60;;
69890;SDS011;57170;43.964;21.262;2023-03-16T09:48:03;23.52;;;17.58;;
69890;SDS011;57170;43.964;21.262;2023-03-16T09:50:31;31.67;;;21.75;;
69890;SDS011;57170;43.964;21.262;2023-03-16T09:57:51;26.73;;;18.83;;
69890;SDS011;57170;43.964;21.262;2023-03-16T10:00:25;27.88;;;19.25;;
69890;SDS011;57170;43.964;21.262;2023-03-16T10:05:21;26.40;;;15.35;;
69890;SDS011;57170;43.964;21.262;2023-03-16T10:10:25;24.52;;;15.60;;
69890;SDS011;57170;43.964;21.262;2023-03-16T10:12:57;40.65;;;26.40;;
69890;SDS011;57170;43.964;21.262;2023-03-16T10:15:25;30.23;;;20.52;;
69890;SDS011;57170;43.964;21.262;2023-03-16T10:20:21;25.25;;;18.52;;
69890;SDS011;57170;43.964;21.262;2023-03-16T10:22:49;25.52;;;18.83;;
69890;SDS011;57170;43.964;21.262;2023-03-16T10:25:26;23.55;;;16.80;;
69890;SDS011;57170;43.964;21.262;2023-03-16T10:27:56;21.48;;;14.27;;
69890;SDS011;57170;43.964;21.262;2023-03-16T10:30:34;20.73;;;13.68;;
69890;SDS011;57170;43.964;21.262;2023-03-16T10:33:03;19.58;;;14.52;;
69890;SDS011;57170;43.964;21.262;2023-03-16T10:38:26;23.60;;;15.13;;
69890;SDS011;57170;43.964;21.262;2023-03-16T10:40:53;20.38;;;15.60;;
69890;SDS011;57170;43.964;21.262;2023-03-16T10:43:22;16.92;;;12.88;;
69890;SDS011;57170;43.964;21.262;2023-03-16T10:45:49;15.98;;;11.75;;
69890;SDS011;57170;43.964;21.262;2023-03-16T10:48:16;17.45;;;13.75;;
69890;SDS011;57170;43.964;21.262;2023-03-16T10:50:43;18.45;;;13.85;;
69890;SDS011;57170;43.964;21.262;2023-03-16T10:53:18;15.38;;;13.30;;
69890;SDS011;57170;43.964;21.262;2023-03-16T10:55:46;33.45;;;22.98;;
69890;SDS011;57170;43.964;21.262;2023-03-16T10:58:22;28.77;;;21.88;;
69890;SDS011;57170;43.964;21.262;2023-03-16T11:00:49;17.38;;;13.77;;
69890;SDS011;57170;43.964;21.262;2023-03-16T11:03:26;23.98;;;16.70;;
69890;SDS011;57170;43.964;21.262;2023-03-16T11:05:56;29.23;;;19.13;;
69890;SDS011;57170;43.964;21.262;2023-03-16T11:08:24;28.05;;;18.10;;
69890;SDS011;57170;43.964;21.262;2023-03-16T11:10:58;21.55;;;14.15;;
69890;SDS011;57170;43.964;21.262;2023-03-16T11:13:33;20.95;;;14.43;;
69890;SDS011;57170;43.964;21.262;2023-03-16T11:16:05;23.50;;;15.43;;
69890;SDS011;57170;43.964;21.262;2023-03-16T11:18:45;19.10;;;14.68;;
69890;SDS011;57170;43.964;21.262;2023-03-16T11:23:57;29.38;;;17.80;;
69890;SDS011;57170;43.964;21.262;2023-03-16T11:26:34;28.38;;;17.63;;
69890;SDS011;57170;43.964;21.262;2023-03-16T11:34:16;17.05;;;14.00;;
69890;SDS011;57170;43.964;21.262;2023-03-16T11:36:50;17.55;;;13.93;;
69890;SDS011;57170;43.964;21.262;2023-03-16T11:39:24;22.65;;;14.00;;
69890;SDS011;57170;43.964;21.262;2023-03-16T11:41:56;16.58;;;12.25;;
69890;SDS011;57170;43.964;21.262;2023-03-16T11:47:08;18.75;;;14.55;;
69890;SDS011;57170;43.964;21.262;2023-03-16T11:57:30;24.48;;;14.50;;
69890;SDS011;57170;43.964;21.262;2023-03-16T12:02:46;18.83;;;16.57;;
69890;SDS011;57170;43.964;21.262;2023-03-16T12:07:52;13.63;;;10.57;;
69890;SDS011;57170;43.964;21.262;2023-03-16T12:10:24;20.95;;;16.17;;
69890;SDS011;57170;43.964;21.262;2023-03-16T12:17:55;24.00;;;17.15;;
69890;SDS011;57170;43.964;21.262;2023-03-16T12:20:23;19.88;;;13.15;;
69890;SDS011;57170;43.964;21.262;2023-03-16T12:22:52;22.48;;;15.55;;
69890;SDS011;57170;43.964;21.262;2023-03-16T12:25:24;15.23;;;11.68;;
69890;SDS011;57170;43.964;21.262;2023-03-16T12:27:52;19.98;;;13.95;;
69890;SDS011;57170;43.964;21.262;2023-03-16T12:32:51;14.25;;;10.63;;
69890;SDS011;57170;43.964;21.262;2023-03-16T12:37:54;18.98;;;10.38;;
69890;SDS011;57170;43.964;21.262;2023-03-16T12:43:37;16.55;;;11.60;;
69890;SDS011;57170;43.964;21.262;2023-03-16T12:48:39;14.82;;;10.52;;
69890;SDS011;57170;43.964;21.262;2023-03-16T12:51:08;13.77;;;9.73;;
69890;SDS011;57170;43.964;21.262;2023-03-16T12:53:42;20.70;;;14.77;;
69890;SDS011;57170;43.964;21.262;2023-03-16T12:56:10;15.65;;;10.68;;
69890;SDS011;57170;43.964;21.262;2023-03-16T12:58:44;23.05;;;18.63;;
69890;SDS011;57170;43.964;21.262;2023-03-16T13:01:11;21.40;;;13.32;;
69890;SDS011;57170;43.964;21.262;2023-03-16T13:03:40;13.15;;;9.50;;
69890;SDS011;57170;43.964;21.262;2023-03-16T13:06:06;12.43;;;9.32;;
69890;SDS011;57170;43.964;21.262;2023-03-16T13:08:41;16.15;;;10.82;;
69890;SDS011;57170;43.964;21.262;2023-03-16T13:11:10;15.23;;;9.90;;
69890;SDS011;57170;43.964;21.262;2023-03-16T13:13:52;12.63;;;9.20;;
69890;SDS011;57170;43.964;21.262;2023-03-16T13:16:33;21.73;;;14.73;;
69890;SDS011;57170;43.964;21.262;2023-03-16T13:21:47;20.60;;;13.63;;
69890;SDS011;57170;43.964;21.262;2023-03-16T13:26:45;24.17;;;15.48;;
69890;SDS011;57170;43.964;21.262;2023-03-16T13:31:42;21.58;;;14.63;;
69890;SDS011;57170;43.964;21.262;2023-03-16T13:34:12;18.83;;;12.40;;
69890;SDS011;57170;43.964;21.262;2023-03-16T13:36:39;15.43;;;10.93;;
69890;SDS011;57170;43.964;21.262;2023-03-16T13:39:20;19.88;;;13.68;;
69890;SDS011;57170;43.964;21.262;2023-03-16T13:42:16;18.60;;;12.20;;
69890;SDS011;57170;43.964;21.262;2023-03-16T13:44:43;21.25;;;13.20;;
69890;SDS011;57170;43.964;21.262;2023-03-16T13:47:12;21.67;;;11.65;;
69890;SDS011;57170;43.964;21.262;2023-03-16T13:49:46;23.30;;;16.65;;
69890;SDS011;57170;43.964;21.262;2023-03-16T13:52:20;18.08;;;11.82;;
69890;SDS011;57170;43.964;21.262;2023-03-16T13:54:47;14.63;;;10.00;;
69890;SDS011;57170;43.964;21.262;2023-03-16T13:57:15;14.02;;;10.27;;
69890;SDS011;57170;43.964;21.262;2023-03-16T13:59:43;14.02;;;10.07;;
69890;SDS011;57170;43.964;21.262;2023-03-16T14:02:15;10.77;;;7.30;;
69890;SDS011;57170;43.964;21.262;2023-03-16T14:04:42;20.65;;;14.05;;
69890;SDS011;57170;43.964;21.262;2023-03-16T14:07:15;18.35;;;11.40;;
69890;SDS011;57170;43.964;21.262;2023-03-16T14:09:42;21.65;;;15.52;;
69890;SDS011;57170;43.964;21.262;2023-03-16T14:12:16;24.10;;;15.27;;
69890;SDS011;57170;43.964;21.262;2023-03-16T14:14:45;19.20;;;12.40;;
69890;SDS011;57170;43.964;21.262;2023-03-16T14:17:15;25.67;;;14.85;;
69890;SDS011;57170;43.964;21.262;2023-03-16T14:19:45;30.38;;;18.75;;
69890;SDS011;57170;43.964;21.262;2023-03-16T14:22:13;13.57;;;10.50;;
69890;SDS011;57170;43.964;21.262;2023-03-16T14:24:40;17.45;;;12.18;;
69890;SDS011;57170;43.964;21.262;2023-03-16T14:29:42;13.35;;;8.95;;
69890;SDS011;57170;43.964;21.262;2023-03-16T14:32:28;15.48;;;11.57;;
69890;SDS011;57170;43.964;21.262;2023-03-16T14:37:40;17.88;;;11.55;;
69890;SDS011;57170;43.964;21.262;2023-03-16T14:40:49;17.92;;;12.93;;
69890;SDS011;57170;43.964;21.262;2023-03-16T14:42:56;15.45;;;10.45;;
69890;SDS011;57170;43.964;21.262;2023-03-16T14:45:25;14.82;;;10.60;;
69890;SDS011;57170;43.964;21.262;2023-03-16T14:47:52;22.55;;;15.63;;
69890;SDS011;57170;43.964;21.262;2023-03-16T14:50:23;16.67;;;11.77;;
69890;SDS011;57170;43.964;21.262;2023-03-16T14:52:50;14.63;;;11.70;;
69890;SDS011;57170;43.964;21.262;2023-03-16T14:55:19;13.80;;;10.25;;
69890;SDS011;57170;43.964;21.262;2023-03-16T14:57:46;20.27;;;15.68;;
69890;SDS011;57170;43.964;21.262;2023-03-16T15:00:15;20.92;;;15.02;;
69890;SDS011;57170;43.964;21.262;2023-03-16T15:02:42;22.98;;;14.35;;
69890;SDS011;57170;43.964;21.262;2023-03-16T15:05:11;24.42;;;18.00;;
69890;SDS011;57170;43.964;21.262;2023-03-16T15:07:41;23.95;;;16.60;;
69890;SDS011;57170;43.964;21.262;2023-03-16T15:12:41;20.00;;;12.13;;
69890;SDS011;57170;43.964;21.262;2023-03-16T15:15:15;18.38;;;10.57;;
69890;SDS011;57170;43.964;21.262;2023-03-16T15:17:43;18.52;;;12.13;;
69890;SDS011;57170;43.964;21.262;2023-03-16T15:20:13;16.90;;;12.48;;
69890;SDS011;57170;43.964;21.262;2023-03-16T15:22:40;19.25;;;12.30;;
69890;SDS011;57170;43.964;21.262;2023-03-16T15:27:52;19.77;;;9.48;;
69890;SDS011;57170;43.964;21.262;2023-03-16T15:30:27;19.27;;;12.10;;
69890;SDS011;57170;43.964;21.262;2023-03-16T15:32:54;17.10;;;10.95;;
69890;SDS011;57170;43.964;21.262;2023-03-16T15:35:20;16.10;;;8.80;;
69890;SDS011;57170;43.964;21.262;2023-03-16T15:37:47;19.30;;;12.95;;
69890;SDS011;57170;43.964;21.262;2023-03-16T15:40:34;15.68;;;11.27;;
69890;SDS011;57170;43.964;21.262;2023-03-16T15:42:59;19.35;;;11.77;;
69890;SDS011;57170;43.964;21.262;2023-03-16T15:45:26;17.38;;;12.52;;
69890;SDS011;57170;43.964;21.262;2023-03-16T15:47:52;23.27;;;14.05;;